Time;durP1;ratioP1;P1;durP2;ratioP2;P2;SDS_P1;SDS_P2;PMS_P1;PMS_P2;Temp;Humidity;BMP_temperature;BMP_pressure;BME280_temperature;BME280_humidity;BME280_pressure;Samples;Min_cycle;Max_cycle;Signal;HPM_P1;HPM_P2
2021/03/27 00:02:31;;;;;;;14.88;10.40;;;10.50;96.70;;;;;;4924150;29;20070;-76
2021/03/27 00:05:10;;;;;;;15.43;10.20;;;10.50;96.70;;;;;;4937678;28;20047;-76
2021/03/27 00:07:50;;;;;;;14.35;10.13;;;10.50;96.70;;;;;;4924436;29;20536;-76
2021/03/27 00:10:24;;;;;;;14.43;10.10;;;10.50;96.70;;;;;;4918427;29;20047;-75
2021/03/27 00:12:57;;;;;;;12.70;8.82;;;10.50;96.70;;;;;;4938518;29;20565;-75
2021/03/27 00:15:35;;;;;;;10.25;8.50;;;10.60;96.70;;;;;;4939939;28;20409;-75
2021/03/27 00:18:10;;;;;;;14.00;8.20;;;10.50;96.70;;;;;;4905597;29;20039;-75
2021/03/27 00:20:42;;;;;;;12.77;8.85;;;10.50;96.70;;;;;;4938104;28;20050;-75
2021/03/27 00:23:17;;;;;;;12.82;8.30;;;10.40;96.70;;;;;;4921411;28;20138;-75
2021/03/27 00:25:50;;;;;;;11.70;7.32;;;10.40;96.70;;;;;;4923548;29;20050;-75
2021/03/27 00:28:23;;;;;;;11.57;8.15;;;10.30;96.70;;;;;;4937578;28;20074;-75
2021/03/27 00:30:54;;;;;;;9.63;7.80;;;10.30;96.70;;;;;;4937406;28;20046;-75
2021/03/27 00:33:26;;;;;;;9.98;7.50;;;10.20;96.70;;;;;;4933489;29;20055;-75
2021/03/27 00:35:57;;;;;;;9.95;7.40;;;10.30;96.70;;;;;;4937971;28;20043;-75
2021/03/27 00:38:33;;;;;;;11.45;7.82;;;10.30;96.70;;;;;;4925690;29;20498;-75
2021/03/27 00:41:02;;;;;;;16.33;8.35;;;10.30;96.70;;;;;;4935297;29;20048;-76
2021/03/27 00:43:33;;;;;;;12.35;8.32;;;10.40;96.70;;;;;;4936883;29;20039;-75
2021/03/27 00:46:03;;;;;;;13.85;7.63;;;10.30;96.70;;;;;;4926181;28;20047;-76
2021/03/27 00:48:36;;;;;;;9.63;7.65;;;10.30;96.70;;;;;;4936629;28;20146;-76
2021/03/27 00:51:11;;;;;;;12.98;8.43;;;10.20;96.70;;;;;;4939749;29;20474;-76
2021/03/27 00:53:42;;;;;;;14.50;8.55;;;10.20;96.70;;;;;;4941080;28;20050;-76
2021/03/27 00:56:14;;;;;;;12.05;8.88;;;10.10;96.70;;;;;;4942033;29;20046;-76
2021/03/27 00:58:45;;;;;;;14.50;9.05;;;10.10;96.70;;;;;;4923967;29;20145;-76
2021/03/27 01:01:18;;;;;;;14.23;9.93;;;10.10;96.70;;;;;;4942624;29;20058;-76
2021/03/27 01:04:10;;;;;;;14.50;9.18;;;10.20;96.70;;;;;;4928571;29;20043;-76
2021/03/27 01:06:51;;;;;;;12.35;8.10;;;10.20;96.70;;;;;;4926810;28;20055;-76
2021/03/27 01:09:49;;;;;;;12.40;8.48;;;10.20;96.70;;;;;;4942338;28;20181;-76
2021/03/27 01:12:30;;;;;;;11.75;7.85;;;10.10;96.70;;;;;;4941554;28;20043;-76
2021/03/27 01:15:01;;;;;;;11.20;8.45;;;10.20;96.70;;;;;;4942904;28;20247;-76
2021/03/27 01:17:34;;;;;;;15.43;8.85;;;10.20;96.70;;;;;;4936744;28;20233;-76
2021/03/27 01:20:09;;;;;;;10.05;7.95;;;10.20;96.70;;;;;;4939807;29;20043;-76
2021/03/27 01:22:37;;;;;;;14.00;8.68;;;10.20;96.70;;;;;;4938641;28;20371;-76
2021/03/27 01:25:07;;;;;;;15.38;9.32;;;10.20;96.70;;;;;;4926020;28;20044;-76
2021/03/27 01:27:41;;;;;;;13.60;9.70;;;10.30;96.70;;;;;;4941683;28;20070;-76
2021/03/27 01:30:19;;;;;;;15.55;9.10;;;10.30;96.70;;;;;;4941791;29;20047;-76
2021/03/27 01:32:51;;;;;;;12.48;9.35;;;10.30;96.70;;;;;;4923730;29;20437;-76
2021/03/27 01:35:35;;;;;;;12.77;9.35;;;10.30;96.70;;;;;;4938534;29;20308;-75
2021/03/27 01:38:08;;;;;;;13.65;8.88;;;10.30;96.70;;;;;;4934722;29;21023;-76
2021/03/27 01:40:44;;;;;;;17.33;9.48;;;10.20;96.70;;;;;;4932920;28;20129;-75
2021/03/27 01:43:19;;;;;;;11.82;7.82;;;10.10;96.70;;;;;;4941608;28;20545;-75
2021/03/27 01:46:11;;;;;;;14.02;8.30;;;10.20;96.70;;;;;;4941141;28;20400;-75
2021/03/27 01:48:51;;;;;;;12.00;8.60;;;10.20;96.70;;;;;;4940792;29;20044;-75
2021/03/27 01:51:29;;;;;;;12.98;7.88;;;10.20;96.70;;;;;;4934656;28;20520;-75
2021/03/27 01:54:01;;;;;;;11.00;8.00;;;10.20;96.70;;;;;;4938357;29;20055;-76
2021/03/27 01:56:41;;;;;;;21.08;9.40;;;10.20;96.70;;;;;;4941032;28;20122;-76
2021/03/27 01:59:11;;;;;;;14.70;10.23;;;10.30;96.70;;;;;;4936479;29;20071;-76
2021/03/27 02:01:43;;;;;;;16.63;10.18;;;10.20;96.70;;;;;;4924776;29;20051;-75
2021/03/27 02:04:16;;;;;;;12.77;8.98;;;10.20;96.70;;;;;;4927211;29;20049;-75
2021/03/27 02:06:48;;;;;;;12.27;9.50;;;10.20;96.70;;;;;;4917668;29;20060;-75
2021/03/27 02:09:23;;;;;;;17.85;10.20;;;10.20;96.70;;;;;;4914146;29;20055;-75
2021/03/27 02:12:03;;;;;;;13.50;9.52;;;10.20;96.70;;;;;;4899107;29;20128;-75
2021/03/27 02:14:37;;;;;;;13.32;10.15;;;10.20;96.70;;;;;;4902305;29;20047;-76
2021/03/27 02:17:15;;;;;;;12.75;9.65;;;10.10;96.70;;;;;;4906843;29;20052;-76
2021/03/27 02:20:07;;;;;;;13.75;10.38;;;10.10;96.70;;;;;;4919800;29;20679;-75
2021/03/27 02:22:41;;;;;;;14.13;9.82;;;10.00;96.70;;;;;;4918217;29;20510;-76
2021/03/27 02:25:33;;;;;;;12.73;9.63;;;10.00;96.70;;;;;;4908706;29;20076;-77
2021/03/27 02:28:10;;;;;;;11.00;9.45;;;10.10;96.70;;;;;;4904549;29;20134;-76
2021/03/27 02:30:44;;;;;;;13.82;9.98;;;10.10;96.70;;;;;;4921007;29;20037;-76
2021/03/27 02:33:30;;;;;;;12.57;10.20;;;10.10;96.70;;;;;;4909943;29;20048;-76
2021/03/27 02:36:09;;;;;;;15.35;10.30;;;10.10;96.70;;;;;;4906954;29;20048;-76
2021/03/27 02:38:51;;;;;;;12.75;10.23;;;10.10;96.70;;;;;;4920897;29;20134;-76
2021/03/27 02:41:31;;;;;;;15.45;10.82;;;10.10;96.70;;;;;;4906107;29;20131;-76
2021/03/27 02:44:05;;;;;;;16.40;10.55;;;10.10;96.70;;;;;;4910269;29;20050;-76
2021/03/27 02:46:39;;;;;;;16.67;10.80;;;10.10;96.70;;;;;;4903518;29;20598;-76
2021/03/27 02:49:29;;;;;;;13.20;10.00;;;10.10;96.70;;;;;;4916976;29;20055;-76
2021/03/27 02:52:06;;;;;;;14.40;10.48;;;10.10;96.70;;;;;;4903031;29;20047;-76
2021/03/27 02:54:48;;;;;;;13.38;10.10;;;10.10;96.70;;;;;;4900906;29;20475;-76
2021/03/27 02:57:22;;;;;;;13.55;9.40;;;10.10;96.70;;;;;;4909509;29;20671;-75
2021/03/27 02:59:56;;;;;;;13.90;10.52;;;10.10;96.70;;;;;;4917925;29;20044;-76
2021/03/27 03:02:32;;;;;;;11.60;9.45;;;10.10;96.70;;;;;;4904442;29;20144;-75
2021/03/27 03:05:07;;;;;;;13.65;10.30;;;10.10;96.70;;;;;;4908581;29;20052;-76
2021/03/27 03:07:41;;;;;;;15.68;10.40;;;10.10;96.70;;;;;;4939770;28;21094;-76
2021/03/27 03:10:23;;;;;;;14.25;10.25;;;10.10;96.70;;;;;;4925695;29;20422;-76
2021/03/27 03:12:59;;;;;;;13.65;9.45;;;10.10;96.70;;;;;;4936814;28;20111;-76
2021/03/27 03:15:33;;;;;;;11.52;9.45;;;10.10;96.70;;;;;;4923544;28;20052;-76
2021/03/27 03:18:14;;;;;;;10.75;8.20;;;10.10;96.70;;;;;;4941700;28;20102;-76
2021/03/27 03:20:48;;;;;;;13.30;9.43;;;10.20;96.70;;;;;;4921775;29;20063;-76
2021/03/27 03:23:24;;;;;;;12.07;9.48;;;10.10;96.70;;;;;;4923043;29;20106;-76
2021/03/27 03:26:00;;;;;;;12.90;9.68;;;10.00;96.70;;;;;;4940258;29;20464;-75
2021/03/27 03:28:34;;;;;;;18.33;9.52;;;10.00;96.70;;;;;;4938860;29;20130;-76
2021/03/27 03:31:13;;;;;;;15.13;10.25;;;10.10;96.70;;;;;;4935583;28;20039;-76
2021/03/27 03:33:59;;;;;;;14.65;9.77;;;10.10;96.70;;;;;;4925038;29;20051;-77
2021/03/27 03:36:34;;;;;;;14.30;9.57;;;10.10;96.70;;;;;;4923496;28;20126;-76
2021/03/27 03:39:17;;;;;;;12.95;9.90;;;10.10;96.70;;;;;;4945421;28;20048;-76
2021/03/27 03:41:52;;;;;;;14.90;10.10;;;10.10;96.70;;;;;;4926888;29;20058;-76
2021/03/27 03:44:39;;;;;;;13.48;9.70;;;10.10;96.70;;;;;;4927235;29;20047;-76
2021/03/27 03:47:18;;;;;;;14.73;10.20;;;10.10;96.70;;;;;;4941056;28;20039;-76
2021/03/27 03:50:16;;;;;;;17.38;9.85;;;10.10;96.70;;;;;;4936932;28;20047;-76
2021/03/27 03:53:00;;;;;;;18.08;10.73;;;10.10;96.70;;;;;;4920948;29;20051;-75
2021/03/27 03:55:38;;;;;;;14.80;10.23;;;10.10;96.70;;;;;;4925540;29;20505;-75
2021/03/27 03:58:24;;;;;;;18.25;10.68;;;10.10;96.70;;;;;;4924566;29;20057;-75
2021/03/27 04:00:58;;;;;;;13.47;9.57;;;10.10;96.70;;;;;;4918191;29;20047;-75
2021/03/27 04:03:32;;;;;;;13.60;10.57;;;10.10;96.70;;;;;;4923692;29;20066;-75
2021/03/27 04:06:02;;;;;;;15.90;9.60;;;10.10;96.70;;;;;;4933434;29;20085;-75
2021/03/27 04:08:39;;;;;;;11.60;9.13;;;10.10;96.70;;;;;;4925259;29;20086;-75
2021/03/27 04:11:32;;;;;;;16.13;10.38;;;10.10;96.70;;;;;;4935354;28;20561;-75
2021/03/27 04:14:02;;;;;;;12.38;9.27;;;10.10;96.70;;;;;;4941558;28;20532;-75
2021/03/27 04:16:33;;;;;;;13.00;9.25;;;10.10;96.70;;;;;;4935962;29;20126;-75
2021/03/27 04:19:09;;;;;;;12.95;9.25;;;10.10;96.70;;;;;;4938365;29;20051;-75
2021/03/27 04:21:49;;;;;;;11.57;9.40;;;10.10;96.70;;;;;;4942150;29;20707;-75
2021/03/27 04:24:23;;;;;;;14.00;9.40;;;10.10;96.70;;;;;;4939074;28;20050;-75
2021/03/27 04:26:54;;;;;;;14.45;10.05;;;10.10;96.70;;;;;;4938089;29;20042;-75
2021/03/27 04:29:31;;;;;;;13.68;9.88;;;10.00;96.70;;;;;;4921496;29;20039;-74
2021/03/27 04:32:29;;;;;;;11.88;9.95;;;10.00;96.70;;;;;;4937611;29;20044;-74
2021/03/27 04:35:14;;;;;;;12.57;10.25;;;10.00;96.70;;;;;;4925387;29;20058;-75
2021/03/27 04:37:49;;;;;;;11.25;9.05;;;10.00;96.70;;;;;;4922816;29;20051;-75
2021/03/27 04:40:25;;;;;;;12.23;8.95;;;10.00;96.70;;;;;;4922176;29;20047;-75
2021/03/27 04:42:56;;;;;;;13.13;9.77;;;10.10;96.70;;;;;;4940181;28;20043;-75
2021/03/27 04:45:27;;;;;;;12.77;9.02;;;10.10;96.70;;;;;;4943777;28;20071;-75
2021/03/27 04:48:08;;;;;;;12.77;9.25;;;10.10;96.70;;;;;;4937090;28;20593;-75
2021/03/27 04:51:17;;;;;;;11.95;9.07;;;10.10;96.70;;;;;;4940954;29;20045;-75
2021/03/27 04:53:51;;;;;;;10.52;8.20;;;10.00;96.70;;;;;;4933570;29;20047;-75
2021/03/27 04:56:25;;;;;;;13.20;9.27;;;10.00;96.70;;;;;;4943245;28;20071;-75
2021/03/27 04:58:59;;;;;;;14.48;9.35;;;10.10;96.70;;;;;;4941918;28;20046;-75
2021/03/27 05:01:41;;;;;;;12.02;8.65;;;10.20;96.70;;;;;;4936251;29;20163;-75
2021/03/27 05:04:15;;;;;;;15.65;9.63;;;10.20;96.70;;;;;;4929693;29;20573;-75
2021/03/27 05:06:48;;;;;;;13.10;10.10;;;10.20;96.70;;;;;;4925292;29;20051;-75
2021/03/27 05:09:30;;;;;;;17.52;10.30;;;10.20;96.70;;;;;;4924470;29;20071;-75
2021/03/27 05:12:00;;;;;;;13.65;10.00;;;10.10;96.70;;;;;;4940580;28;20047;-75
2021/03/27 05:14:44;;;;;;;12.02;9.10;;;10.10;96.70;;;;;;4940053;28;20036;-74
2021/03/27 05:17:19;;;;;;;12.95;10.00;;;10.10;96.70;;;;;;4922412;29;20055;-75
2021/03/27 05:19:58;;;;;;;13.07;9.52;;;10.00;96.70;;;;;;4935682;29;20114;-76
2021/03/27 05:22:36;;;;;;;13.00;9.82;;;10.00;96.70;;;;;;4936570;28;20135;-75
2021/03/27 05:25:25;;;;;;;14.93;9.68;;;9.90;96.70;;;;;;4941220;29;20043;-76
2021/03/27 05:28:05;;;;;;;13.23;9.27;;;9.90;96.70;;;;;;4939584;28;20050;-75
2021/03/27 05:30:45;;;;;;;15.38;10.05;;;10.00;96.70;;;;;;4936389;28;20051;-76
2021/03/27 05:33:24;;;;;;;16.63;10.13;;;10.00;96.70;;;;;;4925207;29;20043;-76
2021/03/27 05:35:58;;;;;;;11.35;9.27;;;10.10;96.70;;;;;;4942934;28;20537;-75
2021/03/27 05:38:37;;;;;;;13.15;10.13;;;10.20;96.70;;;;;;4929822;28;20085;-75
2021/03/27 05:41:34;;;;;;;15.80;9.82;;;10.20;96.70;;;;;;4922673;29;20560;-75
2021/03/27 05:44:24;;;;;;;13.68;9.75;;;10.30;96.70;;;;;;4939429;29;20058;-75
2021/03/27 05:47:25;;;;;;;12.52;9.07;;;10.20;96.70;;;;;;4944111;28;20139;-75
2021/03/27 05:50:14;;;;;;;13.75;9.75;;;10.30;96.70;;;;;;4939705;29;20039;-75
2021/03/27 05:52:59;;;;;;;14.73;10.35;;;10.30;96.70;;;;;;4940995;29;20538;-76
2021/03/27 05:55:38;;;;;;;14.73;9.70;;;10.30;96.70;;;;;;4943977;28;20039;-75
2021/03/27 05:58:26;;;;;;;12.98;9.70;;;10.30;96.70;;;;;;4940272;29;20512;-75
2021/03/27 06:01:01;;;;;;;12.82;9.60;;;10.30;96.70;;;;;;4928821;28;20445;-75
2021/03/27 06:03:49;;;;;;;14.85;10.13;;;10.30;96.70;;;;;;4936149;28;20046;-75
2021/03/27 06:06:40;;;;;;;12.98;10.57;;;10.30;96.70;;;;;;4943215;28;20148;-75
2021/03/27 06:09:33;;;;;;;11.45;9.98;;;10.30;96.70;;;;;;4926519;29;20067;-75
2021/03/27 06:12:24;;;;;;;14.45;10.18;;;10.30;96.70;;;;;;4943799;28;20062;-76
2021/03/27 06:15:17;;;;;;;11.77;10.32;;;10.40;96.70;;;;;;4934703;29;20521;-76
2021/03/27 06:18:11;;;;;;;17.00;10.63;;;10.40;96.70;;;;;;4943656;29;20129;-76
2021/03/27 06:20:51;;;;;;;14.60;11.18;;;10.50;96.70;;;;;;4940426;28;20050;-75
2021/03/27 06:23:44;;;;;;;13.02;10.48;;;10.60;96.70;;;;;;4944137;29;20047;-75
2021/03/27 06:26:37;;;;;;;13.63;11.18;;;10.60;96.70;;;;;;4943967;28;20501;-75
2021/03/27 06:29:32;;;;;;;14.27;11.38;;;10.70;96.70;;;;;;4940512;28;20047;-75
2021/03/27 06:32:14;;;;;;;14.20;11.60;;;10.70;96.70;;;;;;4928490;29;20054;-75
2021/03/27 06:34:51;;;;;;;14.40;12.13;;;10.80;96.70;;;;;;4945328;28;20070;-75
2021/03/27 06:37:43;;;;;;;13.98;11.60;;;10.90;96.70;;;;;;4940884;28;20099;-76
2021/03/27 06:40:39;;;;;;;13.15;11.35;;;10.80;96.70;;;;;;4940616;28;20066;-76
2021/03/27 06:43:24;;;;;;;14.00;10.43;;;10.90;96.70;;;;;;4941326;28;20043;-76
2021/03/27 06:46:01;;;;;;;14.70;11.13;;;10.90;96.70;;;;;;4946608;28;20039;-76
2021/03/27 06:48:53;;;;;;;14.43;11.18;;;11.00;96.70;;;;;;4927685;29;20606;-76
2021/03/27 06:51:39;;;;;;;14.45;11.10;;;11.10;96.70;;;;;;4941254;29;20595;-76
2021/03/27 06:54:41;;;;;;;13.17;10.97;;;11.10;96.70;;;;;;4929640;29;20058;-76
2021/03/27 06:57:30;;;;;;;16.55;11.23;;;11.10;96.70;;;;;;4940782;29;20248;-76
2021/03/27 07:00:33;;;;;;;12.75;10.25;;;11.20;96.70;;;;;;4947461;28;20425;-76
2021/03/27 07:03:36;;;;;;;13.88;10.05;;;11.20;96.70;;;;;;4943369;28;20777;-76
2021/03/27 07:06:33;;;;;;;12.88;11.18;;;11.20;96.70;;;;;;4946489;28;20071;-77
2021/03/27 07:09:48;;;;;;;14.52;10.55;;;11.20;96.70;;;;;;4939646;29;20134;-76
2021/03/27 07:12:39;;;;;;;11.90;10.23;;;11.30;96.70;;;;;;4943025;28;20149;-77
2021/03/27 07:15:35;;;;;;;13.95;9.65;;;11.30;96.70;;;;;;4926328;29;20066;-76
2021/03/27 07:18:21;;;;;;;12.00;10.07;;;11.40;96.70;;;;;;4938039;28;20039;-76
2021/03/27 07:21:06;;;;;;;11.68;10.25;;;11.40;96.70;;;;;;4926692;28;20038;-76
2021/03/27 07:24:00;;;;;;;13.35;9.65;;;11.60;96.70;;;;;;4946196;28;20130;-76
2021/03/27 07:26:57;;;;;;;13.30;9.85;;;11.60;96.70;;;;;;4935957;28;20043;-76
2021/03/27 07:29:49;;;;;;;13.73;10.93;;;11.80;96.70;;;;;;4938499;29;20434;-76
2021/03/27 07:32:32;;;;;;;12.85;9.93;;;11.80;96.70;;;;;;4938879;28;20294;-76
2021/03/27 07:35:16;;;;;;;10.90;9.77;;;11.90;96.70;;;;;;4943045;29;20047;-76
2021/03/27 07:38:21;;;;;;;15.35;9.90;;;12.00;96.70;;;;;;4938732;28;20602;-76
2021/03/27 07:40:58;;;;;;;12.27;9.57;;;12.10;96.70;;;;;;4923318;28;20130;-76
2021/03/27 07:43:48;;;;;;;12.18;9.93;;;12.20;96.70;;;;;;4940610;29;20454;-77
2021/03/27 07:46:53;;;;;;;11.75;9.63;;;12.30;96.70;;;;;;4917775;29;20520;-76
2021/03/27 07:49:45;;;;;;;13.80;9.45;;;12.50;96.70;;;;;;4943445;29;20039;-76
2021/03/27 07:52:26;;;;;;;11.93;9.55;;;12.60;96.70;;;;;;4938942;28;20046;-76
2021/03/27 07:55:16;;;;;;;13.05;10.00;;;12.70;96.70;;;;;;4939232;29;20067;-76
2021/03/27 07:57:56;;;;;;;12.88;9.82;;;12.70;96.70;;;;;;4927479;29;20050;-76
2021/03/27 08:00:39;;;;;;;17.23;10.15;;;12.80;96.70;;;;;;4934401;28;20058;-76
2021/03/27 08:03:31;;;;;;;12.38;9.27;;;12.80;96.70;;;;;;4936943;28;20053;-76
2021/03/27 08:06:21;;;;;;;13.35;9.23;;;12.80;96.70;;;;;;4940875;28;20054;-76
2021/03/27 08:09:15;;;;;;;11.23;9.13;;;12.80;96.70;;;;;;4923557;29;20119;-77
2021/03/27 08:12:10;;;;;;;12.77;9.10;;;12.90;96.70;;;;;;4924759;29;20714;-76
2021/03/27 08:14:59;;;;;;;12.02;9.57;;;13.00;96.70;;;;;;4937951;28;20043;-77
2021/03/27 08:17:51;;;;;;;10.68;8.43;;;13.00;96.70;;;;;;4937527;29;20520;-76
2021/03/27 08:20:38;;;;;;;10.43;7.90;;;13.10;96.70;;;;;;4939474;28;20047;-75
2021/03/27 08:23:29;;;;;;;13.75;8.65;;;13.20;96.70;;;;;;4933411;29;20387;-76
2021/03/27 08:26:16;;;;;;;12.55;8.50;;;13.40;96.70;;;;;;4925818;29;20063;-75
2021/03/27 08:29:28;;;;;;;13.25;8.68;;;13.50;96.70;;;;;;4938780;29;20043;-76
2021/03/27 08:32:22;;;;;;;14.23;8.32;;;13.60;96.70;;;;;;4938856;29;20051;-76
2021/03/27 08:35:19;;;;;;;9.35;7.53;;;13.60;96.70;;;;;;4939059;29;20119;-77
2021/03/27 08:38:12;;;;;;;12.83;7.37;;;13.70;96.70;;;;;;4925485;29;20051;-81
2021/03/27 08:41:04;;;;;;;12.85;7.65;;;13.80;96.70;;;;;;4923848;29;20045;-77
2021/03/27 08:43:49;;;;;;;10.15;7.38;;;13.90;96.70;;;;;;4938709;28;20081;-77
2021/03/27 08:46:43;;;;;;;10.18;7.50;;;14.00;96.70;;;;;;4939455;29;20059;-76
2021/03/27 08:49:35;;;;;;;9.30;7.10;;;14.20;96.70;;;;;;4925332;29;20078;-79
2021/03/27 08:52:28;;;;;;;11.30;6.53;;;14.40;96.70;;;;;;4942554;29;20050;-78
2021/03/27 08:55:10;;;;;;;8.75;6.50;;;14.60;96.70;;;;;;4937097;28;20040;-78
2021/03/27 08:58:06;;;;;;;11.57;7.15;;;14.60;96.70;;;;;;4942917;28;20047;-76
2021/03/27 09:00:57;;;;;;;12.23;6.85;;;14.60;96.70;;;;;;4937944;28;20079;-76
2021/03/27 09:03:52;;;;;;;9.90;6.40;;;14.50;96.70;;;;;;4928888;29;20062;-79
2021/03/27 09:06:29;;;;;;;14.77;6.75;;;14.60;96.70;;;;;;4940541;29;20292;-77
2021/03/27 09:09:18;;;;;;;9.93;7.28;;;14.70;96.70;;;;;;4925315;29;20149;-77
2021/03/27 09:12:06;;;;;;;10.25;7.28;;;14.60;96.70;;;;;;4942717;28;20066;-78
2021/03/27 09:14:58;;;;;;;10.65;6.47;;;14.90;96.70;;;;;;4940339;29;20050;-78
2021/03/27 09:17:37;;;;;;;10.18;6.70;;;15.10;96.70;;;;;;4943316;28;20078;-77
2021/03/27 09:20:24;;;;;;;10.48;6.80;;;14.90;96.70;;;;;;4946557;29;20057;-76
2021/03/27 09:23:08;;;;;;;9.82;6.68;;;15.00;96.70;;;;;;4927272;29;20134;-78
2021/03/27 09:26:05;;;;;;;9.75;6.55;;;15.00;96.70;;;;;;4942236;29;20051;-78
2021/03/27 09:28:40;;;;;;;10.93;6.07;;;15.10;96.70;;;;;;4940794;28;20418;-75
2021/03/27 09:31:35;;;;;;;8.30;6.38;;;15.20;96.70;;;;;;4943364;29;20051;-75
2021/03/27 09:34:10;;;;;;;11.30;7.32;;;15.30;96.70;;;;;;4940137;29;20045;-75
2021/03/27 09:36:45;;;;;;;7.72;4.78;;;15.40;96.70;;;;;;4925575;29;20105;-76
2021/03/27 09:39:23;;;;;;;12.57;7.63;;;15.20;96.70;;;;;;4926298;29;20051;-76
2021/03/27 09:42:05;;;;;;;14.23;7.45;;;15.20;96.70;;;;;;4942372;28;20048;-76
2021/03/27 09:44:57;;;;;;;10.73;6.20;;;15.20;96.70;;;;;;4935884;29;20039;-76
2021/03/27 09:47:48;;;;;;;7.88;5.28;;;15.30;96.70;;;;;;4944860;28;20118;-75
2021/03/27 09:50:31;;;;;;;6.47;4.70;;;15.60;96.70;;;;;;4938479;29;20132;-78
2021/03/27 09:53:04;;;;;;;8.73;5.32;;;15.80;96.70;;;;;;4918086;29;20052;-77
2021/03/27 09:55:41;;;;;;;5.47;3.60;;;16.00;96.70;;;;;;4942807;29;20142;-78
2021/03/27 09:58:19;;;;;;;6.45;4.32;;;16.10;96.70;;;;;;4943037;28;20415;-76
2021/03/27 10:00:59;;;;;;;7.57;4.20;;;16.30;96.70;;;;;;4930211;29;20035;-77
2021/03/27 10:03:35;;;;;;;6.13;3.90;;;16.30;96.70;;;;;;4947089;28;20055;-76
2021/03/27 10:06:33;;;;;;;5.43;3.35;;;16.40;96.70;;;;;;4924957;29;20566;-77
2021/03/27 10:09:03;;;;;;;;;;;16.40;96.70;;;;;;4936338;29;20054;-77
2021/03/27 10:11:37;;;;;;;5.80;3.83;;;16.60;96.70;;;;;;4948816;29;21189;-76
2021/03/27 10:14:16;;;;;;;4.03;2.17;;;16.60;96.70;;;;;;4950750;28;20330;-76
2021/03/27 10:16:53;;;;;;;7.10;3.05;;;16.50;96.70;;;;;;4953302;29;20438;-75
2021/03/27 10:19:32;;;;;;;5.57;2.92;;;16.50;96.70;;;;;;4934464;29;20517;-75
2021/03/27 10:22:17;;;;;;;4.82;2.80;;;16.60;96.00;;;;;;4945792;28;20324;-76
2021/03/27 10:25:13;;;;;;;3.65;2.33;;;16.60;96.70;;;;;;4930543;29;20395;-76
2021/03/27 10:27:57;;;;;;;6.00;2.40;;;16.60;96.70;;;;;;4938624;29;20043;-76
2021/03/27 10:30:32;;;;;;;4.32;2.70;;;16.60;96.70;;;;;;4928629;29;20573;-75
2021/03/27 10:33:21;;;;;;;14.95;3.28;;;16.70;96.70;;;;;;4943299;29;20047;-75
2021/03/27 10:36:13;;;;;;;6.53;3.35;;;16.70;96.70;;;;;;4937626;29;20052;-76
2021/03/27 10:39:02;;;;;;;6.07;2.70;;;16.60;96.70;;;;;;4941371;28;20074;-75
2021/03/27 10:41:56;;;;;;;5.60;3.20;;;16.60;96.70;;;;;;4927425;29;20051;-78
2021/03/27 10:44:34;;;;;;;7.57;2.97;;;16.50;96.70;;;;;;4931242;29;20576;-76
2021/03/27 10:47:05;;;;;;;6.85;3.55;;;16.40;96.70;;;;;;4940513;28;20051;-80
2021/03/27 10:49:45;;;;;;;7.43;3.30;;;16.60;96.70;;;;;;4929237;29;20506;-77
2021/03/27 10:52:31;;;;;;;5.68;2.42;;;16.60;96.70;;;;;;4944251;29;20047;-77
2021/03/27 10:55:23;;;;;;;5.38;2.83;;;16.60;96.70;;;;;;4936300;28;20102;-77
2021/03/27 10:58:13;;;;;;;6.45;2.70;;;16.70;96.70;;;;;;4939318;28;20043;-76
2021/03/27 11:00:56;;;;;;;6.18;3.30;;;17.00;96.50;;;;;;4917196;29;20047;-79
2021/03/27 11:03:51;;;;;;;5.85;2.58;;;17.30;95.80;;;;;;4939929;28;20059;-76
2021/03/27 11:06:49;;;;;;;4.38;2.22;;;17.50;94.30;;;;;;4945416;28;20067;-76
2021/03/27 11:09:50;;;;;;;6.38;2.70;;;17.60;92.40;;;;;;4947315;28;20070;-76
2021/03/27 11:12:39;;;;;;;3.85;2.67;;;17.80;92.70;;;;;;4937077;28;20098;-76
2021/03/27 11:15:23;;;;;;;4.57;2.33;;;17.80;93.30;;;;;;4923973;29;20416;-76
2021/03/27 11:18:12;;;;;;;7.05;2.83;;;17.80;92.40;;;;;;4929161;29;20458;-76
2021/03/27 11:20:57;;;;;;;4.50;3.00;;;17.80;93.00;;;;;;4942358;29;20115;-76
2021/03/27 11:23:47;;;;;;;6.03;3.00;;;17.80;92.60;;;;;;4933694;28;20047;-77
2021/03/27 11:26:37;;;;;;;6.82;2.63;;;17.80;92.00;;;;;;4938302;28;20645;-75
2021/03/27 11:29:27;;;;;;;7.00;2.80;;;18.10;92.00;;;;;;4938345;28;20043;-75
2021/03/27 11:32:05;;;;;;;3.72;2.47;;;18.40;91.00;;;;;;4927239;29;20476;-75
2021/03/27 11:34:39;;;;;;;6.03;2.63;;;18.70;90.20;;;;;;4943895;29;20512;-74
2021/03/27 11:37:26;;;;;;;7.25;2.72;;;18.80;89.30;;;;;;4940290;28;20047;-76
2021/03/27 11:40:01;;;;;;;5.97;2.13;;;18.70;89.60;;;;;;4937065;28;20150;-75
2021/03/27 11:42:36;;;;;;;5.80;2.22;;;18.80;89.90;;;;;;4927554;29;20044;-76
2021/03/27 11:45:10;;;;;;;3.33;2.22;;;18.90;89.40;;;;;;4915995;29;20131;-75
2021/03/27 11:47:52;;;;;;;4.32;1.85;;;18.70;89.30;;;;;;4925178;29;20078;-75
2021/03/27 11:50:42;;;;;;;5.40;2.05;;;18.60;90.20;;;;;;4941991;28;20145;-75
2021/03/27 11:53:18;;;;;;;3.97;2.10;;;18.60;89.60;;;;;;4940183;29;20062;-75
2021/03/27 11:56:02;;;;;;;4.07;2.08;;;18.70;89.30;;;;;;4920773;29;20047;-74
2021/03/27 11:59:41;;;;;;;6.30;2.22;;;19.00;88.10;;;;;;4941065;29;20074;-73
2021/03/27 12:01:30;;;;;;;4.10;1.70;;;19.40;88.40;;;;;;4939954;28;20278;-74
2021/03/27 12:04:19;;;;;;;5.55;2.30;;;19.30;87.10;;;;;;4941052;29;20058;-74
2021/03/27 12:07:03;;;;;;;3.53;1.90;;;19.00;87.70;;;;;;4924941;29;20063;-74
2021/03/27 12:09:44;;;;;;;4.38;2.08;;;18.70;88.30;;;;;;4941074;28;20101;-74
2021/03/27 12:12:24;;;;;;;6.55;2.03;;;18.60;89.80;;;;;;4940803;29;20047;-75
2021/03/27 12:14:56;;;;;;;2.72;1.83;;;18.40;89.90;;;;;;4941876;28;20135;-75
2021/03/27 12:17:35;;;;;;;4.47;2.13;;;18.20;89.50;;;;;;4927000;29;20043;-75
2021/03/27 12:20:21;;;;;;;7.28;2.42;;;18.20;89.90;;;;;;4939454;28;20039;-75
2021/03/27 12:22:56;;;;;;;6.15;2.65;;;18.20;90.00;;;;;;4937623;29;20055;-75
2021/03/27 12:25:53;;;;;;;3.67;2.00;;;18.20;90.40;;;;;;4940262;28;20051;-75
2021/03/27 12:28:31;;;;;;;5.40;2.35;;;18.20;90.30;;;;;;4924270;29;20114;-76
2021/03/27 12:31:13;;;;;;;4.50;1.80;;;18.20;89.90;;;;;;4939300;29;20505;-76
2021/03/27 12:33:54;;;;;;;5.47;1.75;;;18.30;89.40;;;;;;4937797;28;20122;-77
2021/03/27 12:36:29;;;;;;;3.55;1.80;;;18.40;88.50;;;;;;4939317;28;20368;-77
2021/03/27 12:39:06;;;;;;;2.17;1.55;;;18.60;88.80;;;;;;4924766;29;20078;-75
2021/03/27 12:41:39;;;;;;;3.33;1.48;;;18.60;88.10;;;;;;4934170;29;20046;-76
2021/03/27 12:44:13;;;;;;;3.67;1.42;;;18.70;88.10;;;;;;4939663;28;20521;-75
2021/03/27 12:46:51;;;;;;;5.45;2.05;;;18.60;87.60;;;;;;4935975;29;20501;-76
2021/03/27 12:49:38;;;;;;;3.45;1.42;;;18.60;88.60;;;;;;4933051;28;20059;-76
2021/03/27 12:52:22;;;;;;;7.63;2.20;;;18.90;87.80;;;;;;4923711;29;20145;-76
2021/03/27 12:54:59;;;;;;;2.78;1.63;;;19.40;86.80;;;;;;4930135;29;20458;-76
2021/03/27 12:57:45;;;;;;;3.20;1.52;;;19.80;85.90;;;;;;4943001;28;20047;-75
2021/03/27 13:00:39;;;;;;;5.60;1.80;;;19.70;85.40;;;;;;4935742;29;20149;-76
2021/03/27 13:03:16;;;;;;;2.28;1.52;;;19.80;85.80;;;;;;4938830;28;20110;-74
2021/03/27 13:05:49;;;;;;;4.22;1.63;;;19.90;86.00;;;;;;4934779;29;20067;-74
2021/03/27 13:08:29;;;;;;;6.22;2.17;;;19.80;85.30;;;;;;4940225;28;20067;-74
2021/03/27 13:11:12;;;;;;;3.72;1.80;;;19.60;85.90;;;;;;4942552;28;20051;-79
2021/03/27 13:13:54;;;;;;;4.30;2.20;;;19.40;86.60;;;;;;4941481;28;20294;-79
2021/03/27 13:16:27;;;;;;;5.03;1.95;;;19.30;87.50;;;;;;4931768;29;20094;-79
2021/03/27 13:19:04;;;;;;;5.85;2.08;;;19.30;87.70;;;;;;4939203;28;20043;-79
2021/03/27 13:21:52;;;;;;;4.95;1.55;;;19.40;87.40;;;;;;4926630;28;20130;-78
2021/03/27 13:24:26;;;;;;;5.03;1.95;;;19.60;86.30;;;;;;4932005;29;20063;-77
2021/03/27 13:27:17;;;;;;;5.40;1.50;;;19.60;85.60;;;;;;4941064;28;20161;-80
2021/03/27 13:29:47;;;;;;;6.05;1.70;;;19.40;85.50;;;;;;4942020;29;20715;-77
2021/03/27 13:32:21;;;;;;;4.32;2.35;;;19.40;84.90;;;;;;4925356;29;20527;-76
2021/03/27 13:35:01;;;;;;;4.10;1.98;;;19.30;84.60;;;;;;4938338;29;20035;-76
2021/03/27 13:37:34;;;;;;;5.20;3.03;;;19.10;83.30;;;;;;4932240;28;20150;-75
2021/03/27 13:40:09;;;;;;;2.80;1.60;;;19.20;84.20;;;;;;4940118;29;20039;-75
2021/03/27 13:42:46;;;;;;;4.55;2.17;;;19.20;82.90;;;;;;4923624;29;20051;-76
2021/03/27 13:45:31;;;;;;;4.53;1.58;;;19.10;83.00;;;;;;4925047;29;20049;-77
2021/03/27 13:48:20;;;;;;;5.93;2.03;;;19.20;82.90;;;;;;4933697;29;20043;-76
2021/03/27 13:51:04;;;;;;;3.80;1.70;;;19.10;83.30;;;;;;4927215;29;20505;-74
2021/03/27 13:53:42;;;;;;;4.45;1.90;;;19.10;83.40;;;;;;4942174;29;20409;-75
2021/03/27 13:56:23;;;;;;;4.05;1.75;;;19.00;83.10;;;;;;4939532;28;20050;-75